Terminal Aerodrome Forecast
Issued by NWS

Home | Current Version | Previous Version | Text Only | Print | Product List | Glossary On
Versions: 1 2 3 4 5 6 7 8 9 10 11 12 13 14 15 16
000
FTUS43 KDTX 291512 AAA
TAFDET
TAF AMD
KDET 291512Z 2915/3012 12005KT P6SM SCT050 OVC120
      TEMPO 2919/2922 6SM -SHRA
     FM292200 14005KT P6SM BKN050 OVC120
      TEMPO 2922/3002 4SM -SHRA SCT030 BKN050=

USA.gov is the U.S. government's official web portal to all federal, state and local government web resources and services.